GCTS Airport Information

Runway Information
Runway 08 Length 10499 ft width 148 ft
Elevation 187 ft Threshold 0 ft Heading 69
Runway 26 Length 10499 ft Width 148 ft
Elevation 209 ft Threshold 0 ft Heading 249
Airport Frequencies
Type APP Name APP Frequency 120.3 MHZ
Type ATIS Name ATIS Frequency 118.675 MHZ
Type GND Name GND Frequency 121.9 MHZ
Type TWR Name TWR Frequency 119 MHZ
Airport Navaids
Type NDB Name Tenerife Sur Frequency 317 KHZ
Type VOR-DME Name Tenerife Sur Frequency 116400 KHZ
Airport Weather Information & NOTAM
ADDS - METARS form results

(1906 UTC 03 December 2020)
Data provider http://aviationweather.gov/metar/data/
 
METAR text: GCTS 031900Z 32004KT 9999 SCT020 BKN030 19/17 Q1016 RERA TEMPO RA
Conditions at: GCTS (TENERIFE SUR/REI, ES) observed 1900 UTC 03 December 2020
Temperature: 19.0°C (66°F)
Dewpoint: 17.0°C (63°F) [RH = 88%]
Pressure (altimeter): 30.00 inches Hg (1016.0 mb)
Winds: from the NW (320 degrees) at 5 MPH (4 knots; 2.1 m/s)
Visibility: 6 or more miles (10+ km)
Ceiling: 3000 feet AGL
Clouds: scattered clouds at 2000 feet AGL
broken clouds at 3000 feet AGL
Weather: no significant weather observed at this time

METAR text: GCTS 031839Z 29010KT 250V330 3000 +RA BKN025 19/17 Q1016 TEMPO NSW
Conditions at: GCTS (TENERIFE SUR/REI, ES) observed 1839 UTC 03 December 2020
Temperature: 19.0°C (66°F)
Dewpoint: 17.0°C (63°F) [RH = 88%]
Pressure (altimeter): 30.00 inches Hg (1016.0 mb)
Winds: from the WNW (290 degrees) at 12 MPH (10 knots; 5.1 m/s)
Visibility: 1.86 miles (2.99 km)
Ceiling: 2500 feet AGL
Clouds: broken clouds at 2500 feet AGL
Weather: +RA  (heavy rain)

METAR text: GCTS 031830Z 32004KT 260V020 7000 -RA SCT025 BKN035 20/18 Q1016 TEMPO RA
Conditions at: GCTS (TENERIFE SUR/REI, ES) observed 1830 UTC 03 December 2020
Temperature: 20.0°C (68°F)
Dewpoint: 18.0°C (64°F) [RH = 88%]
Pressure (altimeter): 30.00 inches Hg (1016.0 mb)
Winds: from the NW (320 degrees) at 5 MPH (4 knots; 2.1 m/s)
Visibility: 4 miles ( 7 km)
Ceiling: 3500 feet AGL
Clouds: scattered clouds at 2500 feet AGL
broken clouds at 3500 feet AGL
Weather: -RA  (light rain)

Forecast for: GCTS (TENERIFE SUR/REI, ES)
Text: TAF GCTS 031400Z 0315/0415 25013KT 9999 SCT030 TX22/0414Z TN16/0407Z
Forecast period: 1500 to 1700 UTC 03 December 2020
Forecast type: FROM: standard forecast or significant change
Winds: from the WSW (250 degrees) at 15 MPH (13 knots; 6.7 m/s)
Visibility: 6 or more miles (10+ km)
Ceiling: at least 12,000 feet AGL
Clouds: scattered clouds at 3000 feet AGL
Weather: no significant weather forecast for this period
Text: BECMG 0317/0319 31006KT
Forecast period: 1700 UTC 03 December 2020 to 1000 UTC 04 December 2020
Forecast type: BECOMING: Conditions expected to become as follows by 1900 UTC 03 December 2020
Winds: from the NW (310 degrees) at 7 MPH (6 knots; 3.1 m/s)
Visibility: 6 or more miles (10+ km)
Ceiling: at least 12,000 feet AGL
Clouds: scattered clouds at 3000 feet AGL
Weather: no significant weather forecast for this period
Text: PROB40
Forecast period: 1700 to 2100 UTC 03 December 2020
Forecast type: TEMPORARY: The following changes expected for less than half the time period
Visibility: missing
Ceiling: unknown
Clouds: missing
Weather: RA  (moderate rain)
Text: TEMPO 0317/0321 RA
Forecast period: 1000 to 1500 UTC 04 December 2020
Forecast type: BECOMING: Conditions expected to become as follows by 1200 UTC 04 December 2020
Winds: from the E (80 degrees) at 17 MPH (15 knots; 7.7 m/s)
Visibility: 6 or more miles (10+ km)
Ceiling: at least 12,000 feet AGL
Clouds: scattered clouds at 3000 feet AGL
Weather: no significant weather forecast for this period